createdAt,value
2023-04-30T00:01:19.249Z,99.90
2023-04-30T00:03:46.348Z,99.90
2023-04-30T00:06:13.391Z,99.90
2023-04-30T00:08:40.763Z,99.90
2023-04-30T00:11:07.813Z,99.90
2023-04-30T00:13:34.806Z,99.90
2023-04-30T00:16:01.812Z,99.90
2023-04-30T00:18:28.752Z,99.90
2023-04-30T00:20:56.747Z,99.90
2023-04-30T00:23:23.672Z,99.90
2023-04-30T00:25:50.709Z,99.90
2023-04-30T00:28:18.000Z,99.90
2023-04-30T00:30:46.963Z,99.90
2023-04-30T00:33:14.123Z,99.90
2023-04-30T00:35:41.892Z,99.90
2023-04-30T00:38:09.017Z,99.90
2023-04-30T00:40:36.512Z,99.90
2023-04-30T00:43:03.944Z,99.90
2023-04-30T00:45:30.976Z,99.90
2023-04-30T00:47:58.100Z,99.90
2023-04-30T00:50:25.512Z,99.90
2023-04-30T00:52:53.735Z,99.90
2023-04-30T00:55:23.433Z,99.90
2023-04-30T00:57:51.396Z,99.90
2023-04-30T01:00:19.134Z,99.90
2023-04-30T01:02:46.180Z,99.90
2023-04-30T01:05:14.121Z,99.90
2023-04-30T01:07:46.384Z,99.90
2023-04-30T01:10:16.511Z,99.90
2023-04-30T01:12:50.077Z,99.90
2023-04-30T01:15:27.752Z,99.90
2023-04-30T01:18:01.633Z,99.90
2023-04-30T01:20:31.100Z,99.90
2023-04-30T01:23:26.946Z,99.90
2023-04-30T01:26:15.431Z,99.90
2023-04-30T01:28:44.780Z,99.90
2023-04-30T01:31:19.049Z,99.90
2023-04-30T01:33:46.251Z,99.90
2023-04-30T01:36:53.196Z,99.90
2023-04-30T01:39:45.012Z,99.90
2023-04-30T01:42:23.333Z,99.90
2023-04-30T01:45:27.923Z,99.90
2023-04-30T01:48:18.966Z,99.90
2023-04-30T01:51:09.977Z,99.90
2023-04-30T01:53:46.959Z,99.90
2023-04-30T01:56:31.537Z,99.90
2023-04-30T01:59:00.926Z,99.90
2023-04-30T02:01:30.919Z,99.90
2023-04-30T02:04:00.173Z,99.90
2023-04-30T02:06:28.873Z,99.90
2023-04-30T02:09:02.445Z,99.90
2023-04-30T02:11:29.980Z,99.90
2023-04-30T02:13:57.022Z,99.90
2023-04-30T02:16:24.549Z,99.90
2023-04-30T02:18:52.791Z,99.90
2023-04-30T02:21:20.208Z,99.90
2023-04-30T02:23:47.583Z,99.90
2023-04-30T02:26:14.619Z,99.90
2023-04-30T02:28:42.454Z,99.90
2023-04-30T02:31:13.521Z,99.90
2023-04-30T02:33:40.622Z,99.90
2023-04-30T02:36:07.648Z,99.90
2023-04-30T02:38:34.921Z,99.90
2023-04-30T02:41:02.418Z,99.90
2023-04-30T02:43:29.339Z,99.90
2023-04-30T02:45:57.445Z,99.90
2023-04-30T02:48:24.506Z,99.90
2023-04-30T02:50:51.432Z,99.90
2023-04-30T02:53:19.465Z,99.90
2023-04-30T02:55:47.902Z,99.90
2023-04-30T02:58:14.910Z,99.90
2023-04-30T03:00:42.082Z,99.90
2023-04-30T03:03:09.335Z,99.90
2023-04-30T03:05:36.498Z,99.90
2023-04-30T03:08:03.588Z,99.90
2023-04-30T03:10:30.568Z,99.90
2023-04-30T03:12:58.094Z,99.90
2023-04-30T03:15:25.265Z,99.90
2023-04-30T03:17:52.282Z,99.90
2023-04-30T03:20:19.329Z,99.90
2023-04-30T03:22:46.386Z,99.90
2023-04-30T03:25:13.303Z,99.90
2023-04-30T03:27:40.564Z,99.90
2023-04-30T03:30:08.050Z,99.90
2023-04-30T03:32:35.096Z,99.90
2023-04-30T03:35:02.049Z,99.90
2023-04-30T03:37:29.386Z,99.90
2023-04-30T03:39:56.513Z,99.90
2023-04-30T03:42:23.883Z,99.90
2023-04-30T03:44:51.678Z,99.90
2023-04-30T03:47:21.299Z,99.90
2023-04-30T03:49:56.310Z,99.90
2023-04-30T03:52:24.925Z,99.90
2023-04-30T03:54:53.039Z,99.90
2023-04-30T03:57:22.444Z,99.90
2023-04-30T03:59:50.779Z,99.90
2023-04-30T04:02:18.168Z,99.90
2023-04-30T04:04:45.725Z,99.90
2023-04-30T04:07:13.048Z,99.90
2023-04-30T04:09:41.164Z,99.90
2023-04-30T04:12:10.007Z,99.90
2023-04-30T04:14:37.029Z,99.90
2023-04-30T04:17:05.898Z,99.90
2023-04-30T04:19:33.498Z,99.90
2023-04-30T04:22:04.987Z,99.90
2023-04-30T04:24:34.181Z,99.90
2023-04-30T04:27:02.997Z,99.90
2023-04-30T04:29:30.398Z,99.90
2023-04-30T04:31:57.425Z,99.90
2023-04-30T04:34:24.415Z,99.90
2023-04-30T04:36:53.268Z,99.90
2023-04-30T04:39:21.668Z,99.90
2023-04-30T04:41:48.593Z,99.90
2023-04-30T04:44:15.659Z,99.90
2023-04-30T04:46:44.618Z,99.90
2023-04-30T04:49:12.719Z,99.90
2023-04-30T04:51:39.892Z,99.90
2023-04-30T04:54:07.465Z,99.90
2023-04-30T04:56:34.494Z,99.90
2023-04-30T04:59:04.540Z,99.90
2023-04-30T05:01:31.840Z,99.90
2023-04-30T05:03:59.128Z,99.90
2023-04-30T05:06:26.905Z,99.90
2023-04-30T05:08:54.171Z,99.90
2023-04-30T05:11:22.914Z,99.90
2023-04-30T05:13:52.675Z,99.90
2023-04-30T05:16:24.516Z,99.90
2023-04-30T05:18:57.465Z,99.90
2023-04-30T05:21:26.174Z,99.90
2023-04-30T05:23:54.243Z,99.90
2023-04-30T05:26:21.503Z,99.90
2023-04-30T05:28:49.077Z,99.90
2023-04-30T05:31:20.656Z,99.90
2023-04-30T05:33:48.154Z,99.90
2023-04-30T05:36:15.519Z,99.90
2023-04-30T05:38:42.636Z,99.90
2023-04-30T05:41:13.590Z,99.90
2023-04-30T05:43:40.590Z,99.90
2023-04-30T05:46:10.910Z,99.90
2023-04-30T05:48:39.118Z,99.90
2023-04-30T05:51:06.859Z,99.90
2023-04-30T05:53:33.874Z,99.90
2023-04-30T05:56:01.022Z,99.90
2023-04-30T05:58:27.963Z,99.90
2023-04-30T06:00:54.966Z,99.90
2023-04-30T06:03:22.397Z,99.90
2023-04-30T06:05:49.895Z,99.90
2023-04-30T06:08:17.147Z,99.90
2023-04-30T06:10:44.682Z,99.90
2023-04-30T06:13:16.110Z,99.90
2023-04-30T06:15:43.233Z,99.90
2023-04-30T06:18:10.479Z,99.90
2023-04-30T06:20:37.585Z,99.90
2023-04-30T06:23:04.939Z,99.90
2023-04-30T06:25:33.317Z,99.90
2023-04-30T06:28:00.342Z,99.90
2023-04-30T06:30:27.630Z,99.90
2023-04-30T06:32:54.972Z,99.90
2023-04-30T06:35:22.188Z,99.90
2023-04-30T06:37:49.297Z,99.90
2023-04-30T06:40:16.621Z,99.90
2023-04-30T06:42:45.585Z,99.90
2023-04-30T06:45:15.423Z,99.90
2023-04-30T06:47:42.964Z,99.90
2023-04-30T06:50:10.684Z,99.90
2023-04-30T06:52:38.099Z,99.90
2023-04-30T06:55:05.769Z,99.90
2023-04-30T06:57:32.837Z,99.90
2023-04-30T07:00:01.048Z,99.90
2023-04-30T07:02:28.282Z,99.90
2023-04-30T07:04:55.507Z,99.90
2023-04-30T07:07:23.303Z,99.90
2023-04-30T07:09:51.762Z,99.90
2023-04-30T07:12:21.586Z,99.90
2023-04-30T07:14:48.546Z,99.90
2023-04-30T07:17:15.613Z,99.90
2023-04-30T07:19:42.637Z,99.90
2023-04-30T07:22:10.181Z,99.90
2023-04-30T07:24:40.088Z,99.90
2023-04-30T07:27:07.524Z,99.90
2023-04-30T07:29:35.496Z,99.90
2023-04-30T07:32:04.401Z,99.90
2023-04-30T07:34:31.436Z,99.90
2023-04-30T07:37:01.422Z,99.90
2023-04-30T07:39:30.456Z,99.90
2023-04-30T07:41:57.422Z,99.90
2023-04-30T07:44:24.422Z,99.90
2023-04-30T07:46:51.782Z,99.90
2023-04-30T07:49:18.788Z,99.90
2023-04-30T07:51:46.331Z,99.90
2023-04-30T07:54:13.498Z,99.90
2023-04-30T07:56:43.494Z,99.90
2023-04-30T07:59:10.717Z,99.90
2023-04-30T08:01:38.009Z,99.90
2023-04-30T08:04:05.378Z,99.90
2023-04-30T08:06:32.430Z,99.90
2023-04-30T08:09:00.878Z,99.90
2023-04-30T08:11:29.647Z,99.90
2023-04-30T08:13:58.045Z,99.90
2023-04-30T08:16:25.027Z,99.90
2023-04-30T08:18:51.935Z,99.90
2023-04-30T08:21:20.125Z,99.90
2023-04-30T08:23:47.995Z,99.90
2023-04-30T08:26:14.933Z,99.90
2023-04-30T08:28:43.431Z,99.90
2023-04-30T08:31:12.825Z,99.90
2023-04-30T08:33:41.321Z,99.90
2023-04-30T08:36:08.891Z,99.90
2023-04-30T08:38:37.320Z,99.90
2023-04-30T08:41:14.820Z,99.90
2023-04-30T08:43:44.323Z,99.90
2023-04-30T08:48:41.625Z,99.90
2023-04-30T08:51:09.115Z,99.90
2023-04-30T08:53:38.585Z,99.90
2023-04-30T08:56:07.280Z,99.90
2023-04-30T08:58:35.041Z,99.90
2023-04-30T09:01:02.848Z,99.90
2023-04-30T09:03:31.965Z,99.90
2023-04-30T09:05:59.577Z,99.90
2023-04-30T09:08:46.965Z,99.90
2023-04-30T09:11:29.176Z,99.90
2023-04-30T09:13:59.983Z,99.90
2023-04-30T09:16:45.204Z,99.90
2023-04-30T09:19:32.852Z,99.90
2023-04-30T09:21:59.852Z,99.90
2023-04-30T09:24:26.933Z,99.90
2023-04-30T09:26:54.458Z,99.90
2023-04-30T09:29:24.013Z,99.90
2023-04-30T09:31:51.271Z,99.90
2023-04-30T09:34:18.568Z,99.90
2023-04-30T09:37:04.465Z,99.90
2023-04-30T09:39:31.468Z,99.90
2023-04-30T09:42:11.150Z,99.90
2023-04-30T09:44:40.061Z,99.90
2023-04-30T09:47:15.959Z,99.90
2023-04-30T09:49:44.872Z,99.90
2023-04-30T09:52:12.731Z,99.90
2023-04-30T09:54:41.280Z,99.90
2023-04-30T09:57:12.319Z,99.90
2023-04-30T09:59:46.461Z,99.90
2023-04-30T10:02:19.767Z,99.90
2023-04-30T10:04:54.209Z,99.90
2023-04-30T10:07:23.239Z,99.90
2023-04-30T10:10:10.667Z,99.90
2023-04-30T10:12:50.850Z,99.90
2023-04-30T10:15:24.557Z,99.90
2023-04-30T10:18:04.067Z,99.90
2023-04-30T10:20:35.103Z,99.90
2023-04-30T10:23:05.939Z,99.90
2023-04-30T10:25:34.880Z,99.90
2023-04-30T10:28:04.784Z,99.90
2023-04-30T10:30:32.946Z,99.90
2023-04-30T10:33:19.020Z,99.90
2023-04-30T10:36:05.241Z,99.90
2023-04-30T10:38:34.776Z,99.90
2023-04-30T10:41:02.792Z,99.90
2023-04-30T10:43:33.264Z,99.90
2023-04-30T10:46:01.178Z,99.90
2023-04-30T10:48:31.804Z,99.90
2023-04-30T10:51:02.405Z,99.90
2023-04-30T10:53:33.860Z,99.90
2023-04-30T10:56:09.645Z,99.90
2023-04-30T10:58:41.153Z,99.90
2023-04-30T11:01:17.760Z,99.90
2023-04-30T11:04:14.365Z,99.90
2023-04-30T11:07:15.509Z,99.90
2023-04-30T11:09:45.648Z,99.90
2023-04-30T11:12:29.102Z,99.90
2023-04-30T11:15:20.649Z,99.60
2023-04-30T11:17:51.485Z,99.90
2023-04-30T11:20:25.805Z,98.10
2023-04-30T11:23:25.194Z,98.30
2023-04-30T11:26:01.946Z,98.90
2023-04-30T11:28:31.392Z,99.70
2023-04-30T11:31:01.242Z,97.20
2023-04-30T11:33:34.774Z,96.90
2023-04-30T11:36:02.888Z,96.30
2023-04-30T11:38:35.562Z,95.50
2023-04-30T11:41:03.935Z,96.00
2023-04-30T11:43:33.467Z,96.30
2023-04-30T11:46:12.319Z,96.00
2023-04-30T11:48:42.689Z,97.80
2023-04-30T11:51:20.942Z,95.90
2023-04-30T11:53:52.625Z,96.30
2023-04-30T11:56:25.790Z,93.50
2023-04-30T11:58:54.105Z,93.20
2023-04-30T12:01:21.760Z,93.70
2023-04-30T12:03:50.588Z,95.00
2023-04-30T12:06:26.602Z,93.50
2023-04-30T12:08:57.944Z,94.20
2023-04-30T12:11:30.078Z,93.70
2023-04-30T12:14:11.086Z,93.90
2023-04-30T12:16:52.411Z,93.60
2023-04-30T12:19:21.661Z,93.50
2023-04-30T12:21:50.437Z,94.30
2023-04-30T12:24:19.637Z,94.30
2023-04-30T12:26:48.910Z,93.10
2023-04-30T12:29:19.239Z,92.60
2023-04-30T12:31:49.820Z,93.30
2023-04-30T12:34:20.449Z,92.80
2023-04-30T12:36:52.366Z,91.00
2023-04-30T12:39:19.504Z,90.20
2023-04-30T12:41:48.828Z,86.40
2023-04-30T12:44:16.494Z,88.20
2023-04-30T12:46:43.926Z,83.20
2023-04-30T12:49:12.703Z,84.20
2023-04-30T12:51:43.239Z,81.70
2023-04-30T12:54:10.752Z,83.30
2023-04-30T12:56:39.164Z,81.40
2023-04-30T12:59:16.890Z,82.20
2023-04-30T13:01:47.454Z,74.50
2023-04-30T13:04:17.397Z,69.50
2023-04-30T13:06:44.960Z,67.50
2023-04-30T13:09:13.682Z,65.70
2023-04-30T13:11:40.846Z,62.50
2023-04-30T13:14:12.757Z,65.50
2023-04-30T13:16:41.056Z,60.70
2023-04-30T13:19:11.219Z,61.80
2023-04-30T13:21:39.774Z,59.20
2023-04-30T13:24:07.098Z,58.60
2023-04-30T13:26:34.321Z,56.40
2023-04-30T13:29:01.946Z,58.40
2023-04-30T13:31:32.886Z,57.80
2023-04-30T13:34:03.049Z,57.30
2023-04-30T13:36:33.054Z,55.80
2023-04-30T13:39:00.596Z,56.60
2023-04-30T13:41:29.050Z,56.00
2023-04-30T13:43:57.181Z,54.60
2023-04-30T13:46:26.462Z,53.40
2023-04-30T13:48:56.016Z,52.20
2023-04-30T13:51:28.009Z,53.90
2023-04-30T13:53:54.861Z,52.80
2023-04-30T13:56:22.412Z,51.60
2023-04-30T13:58:49.784Z,51.00
2023-04-30T14:01:17.452Z,50.40
2023-04-30T14:03:44.834Z,50.60
2023-04-30T14:06:11.929Z,49.20
2023-04-30T14:08:39.169Z,49.30
2023-04-30T14:11:06.769Z,49.80
2023-04-30T14:13:34.278Z,48.10
2023-04-30T14:16:04.915Z,48.00
2023-04-30T14:18:32.883Z,47.60
2023-04-30T14:21:02.692Z,47.20
2023-04-30T14:23:30.917Z,45.50
2023-04-30T14:25:59.310Z,46.70
2023-04-30T14:28:27.296Z,46.30
2023-04-30T14:30:54.644Z,46.40
2023-04-30T14:33:26.870Z,46.10
2023-04-30T14:35:55.007Z,47.90
2023-04-30T14:38:22.351Z,49.60
2023-04-30T14:40:49.453Z,47.60
2023-04-30T14:43:16.820Z,48.10
2023-04-30T14:45:46.797Z,47.80
2023-04-30T14:48:14.908Z,47.60
2023-04-30T14:50:42.892Z,47.60
2023-04-30T14:53:11.637Z,47.10
2023-04-30T14:55:44.279Z,47.80
2023-04-30T14:58:15.431Z,48.70
2023-04-30T15:00:43.883Z,48.30
2023-04-30T15:03:11.731Z,48.20
2023-04-30T15:05:39.230Z,48.20
2023-04-30T15:08:07.835Z,47.90
2023-04-30T15:10:35.696Z,47.40
2023-04-30T15:13:06.473Z,47.80
2023-04-30T15:15:33.591Z,48.30
2023-04-30T15:18:01.520Z,49.40
2023-04-30T15:20:28.628Z,49.90
2023-04-30T15:22:55.628Z,50.50
2023-04-30T15:25:24.115Z,49.20
2023-04-30T15:27:54.231Z,48.60
2023-04-30T15:30:23.974Z,48.30
2023-04-30T15:32:51.054Z,48.30
2023-04-30T15:35:19.551Z,48.40
2023-04-30T15:37:47.175Z,48.60
2023-04-30T15:40:15.693Z,49.60
2023-04-30T15:42:45.967Z,49.90
2023-04-30T15:45:13.683Z,49.80
2023-04-30T15:47:41.355Z,49.70
2023-04-30T15:50:09.488Z,50.00
2023-04-30T15:52:40.035Z,50.00
2023-04-30T15:55:09.002Z,49.30
2023-04-30T15:57:36.106Z,50.10
2023-04-30T16:00:05.115Z,49.20
2023-04-30T16:02:38.764Z,50.00
2023-04-30T16:05:06.172Z,50.30
2023-04-30T16:07:33.617Z,50.40
2023-04-30T16:10:05.726Z,50.70
2023-04-30T16:12:34.600Z,50.90
2023-04-30T16:15:08.397Z,51.50
2023-04-30T16:17:38.432Z,51.50
2023-04-30T16:20:06.134Z,53.30
2023-04-30T16:22:34.227Z,53.20
2023-04-30T16:25:01.391Z,53.90
2023-04-30T16:27:30.902Z,52.90
2023-04-30T16:29:58.493Z,51.70
2023-04-30T16:32:27.143Z,51.80
2023-04-30T16:34:59.916Z,50.80
2023-04-30T16:37:28.683Z,51.60
2023-04-30T16:39:56.843Z,51.90
2023-04-30T16:42:24.685Z,51.40
2023-04-30T16:44:51.887Z,52.30
2023-04-30T16:47:19.711Z,52.70
2023-04-30T16:49:47.294Z,53.50
2023-04-30T16:52:15.677Z,54.50
2023-04-30T16:54:44.757Z,55.30
2023-04-30T16:57:13.592Z,55.90
2023-04-30T16:59:40.870Z,56.00
2023-04-30T17:02:08.575Z,56.20
2023-04-30T17:04:36.550Z,56.40
2023-04-30T17:07:03.632Z,55.10
2023-04-30T17:09:32.099Z,55.50
2023-04-30T17:11:59.132Z,55.90
2023-04-30T17:14:26.971Z,55.50
2023-04-30T17:16:57.427Z,56.10
2023-04-30T17:19:26.514Z,55.40
2023-04-30T17:21:53.792Z,56.10
2023-04-30T17:24:21.906Z,55.70
2023-04-30T17:26:50.327Z,57.30
2023-04-30T17:29:18.610Z,58.00
2023-04-30T17:31:47.562Z,58.20
2023-04-30T17:34:16.699Z,59.40
2023-04-30T17:36:44.660Z,60.30
2023-04-30T17:39:15.084Z,61.90
2023-04-30T17:41:42.638Z,61.30
2023-04-30T17:44:10.034Z,62.90
2023-04-30T17:46:38.672Z,63.40
2023-04-30T17:49:07.993Z,63.50
2023-04-30T17:51:35.827Z,64.70
2023-04-30T17:54:04.103Z,65.00
2023-04-30T17:56:34.250Z,65.40
2023-04-30T17:59:02.677Z,66.40
2023-04-30T18:01:30.175Z,67.00
2023-04-30T18:03:59.911Z,67.20
2023-04-30T18:06:28.126Z,67.80
2023-04-30T18:08:56.204Z,67.80
2023-04-30T18:11:23.284Z,67.60
2023-04-30T18:13:50.752Z,68.20
2023-04-30T18:16:17.909Z,69.40
2023-04-30T18:18:45.010Z,70.40
2023-04-30T18:21:12.304Z,71.00
2023-04-30T18:23:39.520Z,71.80
2023-04-30T18:26:07.875Z,72.30
2023-04-30T18:28:34.971Z,74.30
2023-04-30T18:31:02.327Z,74.20
2023-04-30T18:33:29.244Z,74.40
2023-04-30T18:35:57.275Z,75.00
2023-04-30T18:38:24.909Z,76.20
2023-04-30T18:40:56.057Z,75.80
2023-04-30T18:43:26.278Z,76.90
2023-04-30T18:45:54.031Z,78.00
2023-04-30T18:48:25.506Z,78.90
2023-04-30T18:50:53.462Z,79.40
2023-04-30T18:53:20.721Z,79.80
2023-04-30T18:55:52.673Z,81.40
2023-04-30T18:58:22.949Z,82.00
2023-04-30T19:00:50.458Z,82.40
2023-04-30T19:03:20.645Z,83.30
2023-04-30T19:05:48.074Z,83.80
2023-04-30T19:08:17.685Z,84.00
2023-04-30T19:10:49.449Z,84.40
2023-04-30T19:13:18.960Z,84.60
2023-04-30T19:15:48.740Z,85.50
2023-04-30T19:18:18.179Z,86.20
2023-04-30T19:20:57.970Z,87.10
2023-04-30T19:23:25.218Z,87.70
2023-04-30T19:25:56.994Z,88.00
2023-04-30T19:28:24.497Z,88.80
2023-04-30T19:30:57.241Z,89.50
2023-04-30T19:33:25.558Z,89.90
2023-04-30T19:35:57.839Z,90.10
2023-04-30T19:38:24.936Z,90.20
2023-04-30T19:40:53.586Z,90.20
2023-04-30T19:43:22.731Z,90.50
2023-04-30T19:45:58.547Z,90.70
2023-04-30T19:48:27.541Z,90.60
2023-04-30T19:50:55.098Z,90.70
2023-04-30T19:53:26.849Z,91.00
2023-04-30T19:55:54.411Z,91.10
2023-04-30T19:58:22.143Z,91.20
2023-04-30T20:00:49.344Z,91.90
2023-04-30T20:03:17.501Z,91.80
2023-04-30T20:05:45.414Z,92.10
2023-04-30T20:08:13.230Z,92.20
2023-04-30T20:10:41.583Z,92.70
2023-04-30T20:13:09.510Z,92.50
2023-04-30T20:15:37.098Z,92.80
2023-04-30T20:18:08.592Z,92.80
2023-04-30T20:20:35.647Z,93.10
2023-04-30T20:23:13.926Z,93.10
2023-04-30T20:25:49.190Z,93.60
2023-04-30T20:28:18.268Z,93.80
2023-04-30T20:30:47.564Z,93.60
2023-04-30T20:33:16.881Z,93.90
2023-04-30T20:35:48.007Z,94.10
2023-04-30T20:38:19.659Z,94.10
2023-04-30T20:40:48.211Z,94.00
2023-04-30T20:43:17.326Z,94.30
2023-04-30T20:45:45.432Z,94.90
2023-04-30T20:48:18.491Z,94.70
2023-04-30T20:50:46.149Z,94.90
2023-04-30T20:53:15.300Z,95.30
2023-04-30T20:55:42.705Z,95.80
2023-04-30T20:58:11.401Z,96.00
2023-04-30T21:00:39.268Z,96.30
2023-04-30T21:03:08.522Z,96.80
2023-04-30T21:05:35.674Z,96.90
2023-04-30T21:08:02.841Z,96.90
2023-04-30T21:10:36.795Z,97.20
2023-04-30T21:13:05.931Z,97.50
2023-04-30T21:15:36.083Z,98.00
2023-04-30T21:18:03.475Z,98.30
2023-04-30T21:20:31.915Z,98.40
2023-04-30T21:23:02.050Z,98.50
2023-04-30T21:25:31.793Z,98.70
2023-04-30T21:27:58.849Z,99.00
2023-04-30T21:30:26.673Z,99.10
2023-04-30T21:32:59.057Z,99.60
2023-04-30T21:35:27.868Z,99.60
2023-04-30T21:37:55.898Z,99.70
2023-04-30T21:40:23.005Z,99.90
2023-04-30T21:42:52.824Z,99.90
2023-04-30T21:45:20.301Z,99.90
2023-04-30T21:47:49.131Z,99.90
2023-04-30T21:50:17.564Z,99.90
2023-04-30T21:52:44.902Z,99.90
2023-04-30T21:55:12.474Z,99.90
2023-04-30T21:57:39.874Z,99.90
2023-04-30T22:00:08.140Z,99.90
2023-04-30T22:02:36.298Z,99.90
2023-04-30T22:05:04.693Z,99.90
2023-04-30T22:07:32.978Z,99.90
2023-04-30T22:10:00.320Z,99.90
2023-04-30T22:12:28.495Z,99.90
2023-04-30T22:14:57.427Z,99.90
2023-04-30T22:17:25.382Z,99.90
2023-04-30T22:19:52.478Z,99.90
2023-04-30T22:22:19.523Z,99.90
2023-04-30T22:24:46.725Z,99.90
2023-04-30T22:27:14.102Z,99.90
2023-04-30T22:29:42.067Z,99.90
2023-04-30T22:32:10.004Z,99.90
2023-04-30T22:34:40.322Z,99.90
2023-04-30T22:37:10.873Z,99.90
2023-04-30T22:39:39.479Z,99.90
2023-04-30T22:42:07.161Z,99.90
2023-04-30T22:44:34.354Z,99.90
2023-04-30T22:47:02.560Z,99.90
2023-04-30T22:49:31.996Z,99.90
2023-04-30T22:52:04.533Z,99.90
2023-04-30T22:54:31.794Z,99.90
2023-04-30T22:56:59.871Z,99.90
2023-04-30T22:59:26.909Z,99.90
2023-04-30T23:01:54.802Z,99.90
2023-04-30T23:04:26.582Z,99.90
2023-04-30T23:06:59.081Z,99.90
2023-04-30T23:09:26.739Z,99.90
2023-04-30T23:11:53.710Z,99.90
2023-04-30T23:14:29.275Z,99.90
2023-04-30T23:16:58.906Z,99.90
2023-04-30T23:19:26.380Z,99.90
2023-04-30T23:21:55.413Z,99.90
2023-04-30T23:24:22.553Z,99.90
2023-04-30T23:26:49.524Z,99.90
2023-04-30T23:29:18.094Z,99.90
2023-04-30T23:31:46.769Z,99.90
2023-04-30T23:34:13.781Z,99.90
2023-04-30T23:36:42.507Z,99.90
2023-04-30T23:39:12.073Z,99.90
2023-04-30T23:41:39.218Z,99.90
2023-04-30T23:44:06.846Z,99.90
2023-04-30T23:49:16.583Z,99.90
2023-04-30T23:51:45.114Z,99.90
2023-04-30T23:54:13.411Z,99.90
2023-04-30T23:56:40.727Z,99.90
2023-04-30T23:59:08.425Z,99.90
